Time;durP1;ratioP1;P1;durP2;ratioP2;P2;SDS_P1;SDS_P2;PMS_P1;PMS_P2;Temp;Humidity;BMP_temperature;BMP_pressure;BME280_temperature;BME280_humidity;BME280_pressure;Samples;Min_cycle;Max_cycle;Signal;HPM_P1;HPM_P2
2021/12/29 00:00:27;;;;;;;28.63;15.73;;;;;;;7.46;54.66;93164.81;5041212;28;20116;-76
2021/12/29 00:02:54;;;;;;;33.88;17.20;;;;;;;7.24;55.02;93146.41;5044761;28;20097;-77
2021/12/29 00:05:20;;;;;;;27.45;14.85;;;;;;;7.31;54.77;93152.03;5043379;28;20106;-78
2021/12/29 00:07:45;;;;;;;26.00;15.13;;;;;;;7.14;55.01;93133.47;5046687;28;20049;-77
2021/12/29 00:10:12;;;;;;;30.15;15.07;;;;;;;7.23;55.18;93160.72;5042755;28;20040;-77
2021/12/29 00:12:45;;;;;;;20.75;12.13;;;;;;;7.15;55.07;93145.59;5048722;28;20112;-77
2021/12/29 00:15:13;;;;;;;22.20;11.00;;;;;;;7.39;55.26;93179.56;5043744;28;20037;-77
2021/12/29 00:17:43;;;;;;;23.15;10.85;;;;;;;7.37;55.13;93177.25;5050796;28;20032;-77
2021/12/29 00:20:10;;;;;;;16.88;8.95;;;;;;;7.42;55.11;93173.69;5049092;28;20091;-76
2021/12/29 00:22:35;;;;;;;18.70;10.30;;;;;;;7.30;55.71;93161.03;5046956;28;20029;-77
2021/12/29 00:25:01;;;;;;;15.60;8.48;;;;;;;7.35;55.93;93141.59;5042457;28;20045;-78
2021/12/29 00:27:27;;;;;;;16.13;7.88;;;;;;;7.26;55.44;93115.13;5038574;28;20080;-77
2021/12/29 00:29:52;;;;;;;17.25;7.80;;;;;;;7.36;55.76;93135.22;5048101;28;20036;-76
2021/12/29 00:32:17;;;;;;;22.52;11.40;;;;;;;7.45;55.30;93151.88;5045671;28;20088;-76
2021/12/29 00:34:43;;;;;;;25.00;13.50;;;;;;;7.40;55.68;93141.44;5041831;28;20048;-75
2021/12/29 00:37:08;;;;;;;21.45;12.55;;;;;;;7.34;55.48;93129.47;5045638;28;20044;-78
2021/12/29 00:39:34;;;;;;;19.23;11.25;;;;;;;7.41;55.53;93135.06;5043919;28;20037;-76
2021/12/29 00:41:59;;;;;;;16.30;10.15;;;;;;;7.45;55.52;93150.03;5049096;28;20045;-77
2021/12/29 00:44:25;;;;;;;17.45;10.35;;;;;;;7.51;55.25;93151.44;5035461;28;20017;-76
2021/12/29 00:46:53;;;;;;;17.02;8.88;;;;;;;7.63;55.12;93150.84;5043715;28;20045;-77
2021/12/29 00:49:20;;;;;;;17.85;8.98;;;;;;;7.56;55.02;93161.88;5043123;28;20048;-78
2021/12/29 00:51:46;;;;;;;13.55;8.05;;;;;;;7.48;54.84;93141.50;5028500;28;20452;-78
2021/12/29 00:54:11;;;;;;;13.32;9.05;;;;;;;7.61;54.49;93139.78;5043826;28;20067;-74
2021/12/29 00:56:38;;;;;;;18.35;8.88;;;;;;;7.78;54.35;93170.81;5045474;28;20033;-76
2021/12/29 00:59:03;;;;;;;17.55;10.02;;;;;;;7.41;55.08;93143.81;5043397;28;20051;-77
2021/12/29 01:01:29;;;;;;;16.63;10.73;;;;;;;7.61;54.87;93164.38;5045543;28;20033;-76
2021/12/29 01:03:55;;;;;;;16.42;9.93;;;;;;;7.32;55.56;93156.22;5047379;28;20512;-76
2021/12/29 01:06:20;;;;;;;21.15;9.77;;;;;;;7.24;55.93;93163.03;5041546;28;20060;-76
2021/12/29 01:08:46;;;;;;;15.07;6.95;;;;;;;7.08;55.87;93126.78;5042858;28;20934;-76
2021/12/29 01:11:12;;;;;;;10.07;5.82;;;;;;;7.22;55.88;93143.28;5048373;28;20017;-75
2021/12/29 01:13:45;;;;;;;9.43;5.82;;;;;;;7.12;56.01;93139.06;5051439;28;20026;-76
2021/12/29 01:18:55;;;;;;;14.13;8.25;;;;;;;7.44;56.24;93145.81;5048446;28;20056;-77
2021/12/29 01:21:20;;;;;;;14.18;8.15;;;;;;;7.49;56.46;93139.59;5043722;28;20045;-77
2021/12/29 01:23:46;;;;;;;15.63;8.57;;;;;;;7.50;56.18;93134.00;5034997;28;20020;-77
2021/12/29 01:26:11;;;;;;;14.55;7.50;;;;;;;7.59;56.10;93134.78;5033045;28;20040;-77
2021/12/29 01:28:36;;;;;;;16.85;8.77;;;;;;;7.54;55.88;93113.78;5030942;28;20037;-76
2021/12/29 01:31:02;;;;;;;19.33;7.97;;;;;;;7.62;56.21;93120.16;5040762;28;20056;-76
2021/12/29 01:33:27;;;;;;;15.13;8.55;;;;;;;7.66;56.06;93132.47;5038343;28;20105;-77
2021/12/29 01:35:53;;;;;;;13.23;8.63;;;;;;;7.61;55.78;93116.75;5033249;28;20033;-77
2021/12/29 01:38:18;;;;;;;14.07;7.38;;;;;;;7.01;57.81;93115.84;5043499;28;20075;-78
2021/12/29 01:40:48;;;;;;;17.35;8.98;;;;;;;7.27;57.40;93101.63;5029251;28;20041;-76
2021/12/29 01:43:14;;;;;;;18.45;9.35;;;;;;;7.25;57.18;93089.78;5049173;28;20029;-77
2021/12/29 01:45:39;;;;;;;12.90;6.25;;;;;;;7.60;56.63;93115.19;5047199;28;20455;-76
2021/12/29 01:48:05;;;;;;;12.80;6.88;;;;;;;7.54;56.40;93095.25;5045392;28;20063;-77
2021/12/29 01:50:31;;;;;;;12.25;6.97;;;;;;;7.76;55.96;93110.22;5037774;28;20029;-77
2021/12/29 01:53:07;;;;;;;11.43;6.65;;;;;;;7.80;55.92;93091.84;5030544;28;20277;-77
2021/12/29 01:55:34;;;;;;;13.57;8.10;;;;;;;7.91;55.88;93106.34;5044428;28;20060;-77
2021/12/29 01:58:00;;;;;;;13.57;7.07;;;;;;;7.92;55.84;93097.31;5048274;28;20091;-76
2021/12/29 02:00:29;;;;;;;14.02;6.88;;;;;;;7.87;55.79;93071.78;5049844;28;20052;-77
2021/12/29 02:02:54;;;;;;;15.77;7.93;;;;;;;7.87;55.58;93063.84;5046441;28;20032;-75
2021/12/29 02:05:20;;;;;;;14.30;8.93;;;;;;;7.92;55.76;93068.19;5043453;28;20066;-76
2021/12/29 02:07:46;;;;;;;15.75;8.75;;;;;;;8.05;55.63;93080.47;5044935;28;20037;-78
2021/12/29 02:10:15;;;;;;;16.92;8.77;;;;;;;8.00;55.67;93067.38;5045129;28;20041;-77
2021/12/29 02:12:41;;;;;;;14.65;8.10;;;;;;;7.84;55.57;93074.25;5046233;28;20052;-76
2021/12/29 02:15:08;;;;;;;15.60;9.85;;;;;;;7.20;58.12;93071.41;5053282;28;20037;-77
2021/12/29 02:17:33;;;;;;;16.38;8.88;;;;;;;7.62;57.09;93069.88;5044375;28;20033;-77
2021/12/29 02:20:01;;;;;;;17.92;8.77;;;;;;;7.25;57.51;93053.53;5044644;28;20116;-77
2021/12/29 02:25:07;;;;;;;15.23;8.40;;;;;;;7.60;57.33;93049.03;5042285;28;20070;-76
2021/12/29 02:27:36;;;;;;;15.43;7.78;;;;;;;7.69;57.04;93049.78;5045530;28;20041;-78
2021/12/29 02:30:03;;;;;;;16.55;8.27;;;;;;;7.53;56.53;92995.78;5032569;28;20048;-76
2021/12/29 02:32:28;;;;;;;16.00;7.25;;;;;;;7.90;56.20;93047.31;5043944;28;20029;-77
2021/12/29 02:34:54;;;;;;;13.90;7.95;;;;;;;7.89;56.22;93024.56;5040106;28;20033;-77
2021/12/29 02:37:20;;;;;;;15.05;7.68;;;;;;;7.82;55.81;93002.34;5046005;28;20035;-77
2021/12/29 02:39:47;;;;;;;18.80;8.98;;;;;;;7.94;56.00;93021.75;5040176;28;20033;-77
2021/12/29 02:42:14;;;;;;;15.20;8.50;;;;;;;7.96;55.94;93016.16;5047574;28;20105;-77
2021/12/29 02:44:41;;;;;;;13.65;8.23;;;;;;;7.93;55.36;93014.91;5044558;28;20048;-77
2021/12/29 02:47:07;;;;;;;17.25;8.27;;;;;;;7.70;56.07;93026.75;5042938;28;20175;-76
2021/12/29 02:49:33;;;;;;;12.25;7.78;;;;;;;7.51;56.73;93040.31;5046104;28;20400;-76
2021/12/29 02:51:58;;;;;;;13.38;7.25;;;;;;;7.23;57.79;93020.56;5041723;28;20319;-78
2021/12/29 02:54:24;;;;;;;14.98;7.88;;;;;;;7.31;58.34;93043.56;5040693;28;20097;-77
2021/12/29 02:56:54;;;;;;;16.27;7.10;;;;;;;7.15;58.59;93019.44;5035631;28;20025;-77
2021/12/29 02:59:22;;;;;;;13.75;7.10;;;;;;;7.38;58.26;93040.47;5037298;28;20051;-75
2021/12/29 03:01:48;;;;;;;15.88;7.03;;;;;;;7.51;57.82;93047.47;5046536;28;20668;-77
2021/12/29 03:07:36;;;;;;;13.27;8.07;;;;;;;7.14;58.01;93036.41;5051240;28;20047;-77
2021/12/29 03:10:02;;;;;;;15.68;9.02;;;;;;;6.96;59.36;93023.47;5052841;28;20040;-78
2021/12/29 03:12:28;;;;;;;15.15;8.15;;;;;;;7.33;57.64;93014.97;5036590;28;20455;-77
2021/12/29 03:14:57;;;;;;;16.23;8.38;;;;;;;7.30;58.00;93034.88;5029367;28;20017;-76
2021/12/29 03:17:22;;;;;;;12.55;7.28;;;;;;;7.51;57.28;93035.03;5046990;28;20033;-77
2021/12/29 03:19:48;;;;;;;14.25;8.02;;;;;;;7.33;56.90;92996.44;5035580;28;20562;-77
2021/12/29 03:22:14;;;;;;;29.33;12.82;;;;;;;7.48;57.06;93034.88;5041398;28;20182;-77
2021/12/29 03:24:40;;;;;;;27.98;15.00;;;;;;;7.37;57.48;93021.19;5048886;28;20048;-77
2021/12/29 03:27:05;;;;;;;43.85;19.27;;;;;;;7.18;57.96;92999.56;5045719;28;20036;-78
2021/12/29 03:29:31;;;;;;;19.25;9.32;;;;;;;7.19;58.02;93014.34;5046242;28;20028;-77
2021/12/29 03:31:59;;;;;;;18.25;8.13;;;;;;;7.34;57.48;93027.06;5034528;28;20061;-77
2021/12/29 03:34:24;;;;;;;15.18;7.88;;;;;;;7.24;58.01;93003.59;5049625;28;20033;-78
2021/12/29 03:36:50;;;;;;;14.10;7.63;;;;;;;7.28;57.63;93007.19;5047277;28;20132;-77
2021/12/29 03:39:16;;;;;;;9.27;6.30;;;;;;;7.34;57.58;93016.50;5047209;28;20053;-78
2021/12/29 03:41:42;;;;;;;9.45;5.70;;;;;;;7.49;56.51;93002.81;5038775;28;20032;-77
2021/12/29 03:44:07;;;;;;;14.10;6.57;;;;;;;7.62;56.57;93023.03;5045159;28;20029;-78
2021/12/29 03:46:33;;;;;;;11.23;5.22;;;;;;;7.42;56.94;93005.16;5046400;28;20037;-77
2021/12/29 03:49:00;;;;;;;10.15;5.95;;;;;;;7.46;56.89;93010.59;5030290;28;20060;-75
2021/12/29 03:51:25;;;;;;;8.35;4.82;;;;;;;7.44;56.87;92999.53;5030448;28;20565;-77
2021/12/29 03:53:51;;;;;;;9.73;5.47;;;;;;;7.41;56.65;92992.22;5049142;28;20075;-76
2021/12/29 03:56:16;;;;;;;9.88;4.80;;;;;;;7.40;56.66;92975.56;5048371;28;20051;-77
2021/12/29 03:58:44;;;;;;;9.60;5.57;;;;;;;7.73;56.30;92998.94;5038227;28;20113;-77
2021/12/29 04:01:12;;;;;;;11.38;5.45;;;;;;;7.67;55.67;92969.94;5043395;28;20551;-78
2021/12/29 04:03:38;;;;;;;8.85;5.18;;;;;;;7.79;55.82;92987.06;5043618;28;20251;-77
2021/12/29 04:06:04;;;;;;;10.02;5.78;;;;;;;7.73;55.50;92984.56;5045549;28;20037;-77
2021/12/29 04:08:29;;;;;;;7.97;5.63;;;;;;;7.52;55.80;92965.16;5050931;28;21235;-76
2021/12/29 04:10:55;;;;;;;6.80;4.80;;;;;;;7.80;55.40;93004.50;5052359;28;20695;-76
2021/12/29 04:13:21;;;;;;;8.18;5.68;;;;;;;7.77;55.61;93000.63;5047594;28;20484;-76
2021/12/29 04:15:47;;;;;;;11.90;6.85;;;;;;;7.58;55.98;93003.56;5041413;28;20432;-77
2021/12/29 04:18:15;;;;;;;16.23;8.65;;;;;;;7.41;56.24;92977.13;5041672;28;20423;-78
2021/12/29 04:20:55;;;;;;;13.15;6.63;;;;;;;7.56;55.93;93000.47;5047298;28;20357;-75
2021/12/29 04:23:23;;;;;;;12.10;7.25;;;;;;;7.35;56.41;92988.97;5040687;28;20037;-77
2021/12/29 04:25:52;;;;;;;15.13;7.70;;;;;;;7.09;57.36;92973.09;5046202;28;20076;-77
2021/12/29 04:28:20;;;;;;;13.93;7.78;;;;;;;7.30;57.19;92995.19;5041656;28;20033;-76
2021/12/29 04:30:47;;;;;;;11.48;7.25;;;;;;;7.15;57.37;92997.50;5045197;28;20040;-76
2021/12/29 04:33:14;;;;;;;11.32;7.05;;;;;;;7.18;57.86;93000.34;5041573;28;20056;-77
2021/12/29 04:35:40;;;;;;;14.48;6.93;;;;;;;7.14;57.83;92993.34;5028990;28;20036;-76
2021/12/29 04:38:06;;;;;;;13.52;7.07;;;;;;;7.17;57.60;92982.13;5040018;28;20083;-76
2021/12/29 04:40:32;;;;;;;9.75;5.68;;;;;;;7.49;56.87;93004.66;5046692;28;20045;-76
2021/12/29 04:42:58;;;;;;;11.93;6.18;;;;;;;7.51;56.27;93003.28;5044608;28;20033;-76
2021/12/29 04:45:23;;;;;;;12.55;6.35;;;;;;;7.34;56.45;92997.97;5042241;28;20055;-76
2021/12/29 04:47:50;;;;;;;12.48;6.53;;;;;;;7.20;56.98;92992.06;5043593;28;20025;-75
2021/12/29 04:50:25;;;;;;;10.35;6.03;;;;;;;7.28;57.37;92996.59;5041760;28;20021;-76
2021/12/29 04:52:56;;;;;;;;;;;;;;;7.47;56.69;93017.44;5027048;28;20052;-77
2021/12/29 04:55:21;;;;;;;16.20;8.20;;;;;;;7.47;56.80;93018.22;5042627;28;19947;-74
2021/12/29 04:57:47;;;;;;;17.23;8.45;;;;;;;7.33;57.34;93006.25;5047952;28;20049;-76
2021/12/29 05:00:13;;;;;;;12.02;7.10;;;;;;;7.38;57.41;93019.31;5044587;28;20048;-76
2021/12/29 05:02:39;;;;;;;14.43;8.73;;;;;;;7.30;57.32;93012.91;5046833;28;20079;-76
2021/12/29 05:05:18;;;;;;;14.63;8.07;;;;;;;7.02;58.21;92993.94;5046446;28;20041;-77
2021/12/29 05:10:28;;;;;;;15.48;8.45;;;;;;;7.08;58.52;92994.56;5042635;28;20062;-77
2021/12/29 05:12:53;;;;;;;11.68;7.00;;;;;;;7.37;57.78;93018.53;5041147;28;20041;-75
2021/12/29 05:15:19;;;;;;;13.18;8.80;;;;;;;7.23;58.06;93023.97;5040468;28;20075;-77
2021/12/29 05:17:45;;;;;;;15.50;8.20;;;;;;;7.30;57.90;93015.56;5042876;28;20441;-75
2021/12/29 05:20:11;;;;;;;20.58;10.52;;;;;;;7.38;57.89;93017.44;5042875;28;20039;-76
2021/12/29 05:22:36;;;;;;;26.85;11.45;;;;;;;7.31;58.29;93014.47;5044097;28;20472;-76
2021/12/29 05:25:02;;;;;;;22.02;11.65;;;;;;;7.39;58.41;93024.28;5045356;28;20041;-76
2021/12/29 05:27:27;;;;;;;29.30;12.95;;;;;;;7.41;58.72;93023.97;5046963;28;20112;-76
2021/12/29 05:29:53;;;;;;;31.73;14.07;;;;;;;6.44;58.63;92891.28;5037741;28;20147;-75
2021/12/29 05:32:18;;;;;;;23.65;12.23;;;;;;;7.32;58.95;93016.03;5042272;28;20025;-76
2021/12/29 05:34:43;;;;;;;24.20;11.93;;;;;;;7.23;59.57;93012.63;5044864;28;20101;-77
2021/12/29 05:37:09;;;;;;;29.70;13.55;;;;;;;7.39;59.92;93031.44;5048009;28;20036;-76
2021/12/29 05:39:34;;;;;;;36.70;17.75;;;;;;;7.13;60.10;92994.41;5041450;28;20037;-77
2021/12/29 05:41:59;;;;;;;27.73;14.02;;;;;;;7.31;60.36;93019.78;5042489;28;20096;-76
2021/12/29 05:44:25;;;;;;;30.25;15.25;;;;;;;7.58;59.65;93024.72;5032954;28;20021;-77
2021/12/29 05:46:50;;;;;;;25.67;12.15;;;;;;;7.55;59.40;93030.66;5044435;28;20034;-77
2021/12/29 05:49:16;;;;;;;25.67;14.65;;;;;;;7.42;59.20;93002.50;5028952;28;20029;-76
2021/12/29 05:51:41;;;;;;;30.58;15.23;;;;;;;7.34;60.13;93013.84;5045045;28;20041;-76
2021/12/29 05:54:07;;;;;;;24.65;14.15;;;;;;;7.55;60.21;93033.31;5041504;28;20209;-77
2021/12/29 05:56:32;;;;;;;23.25;11.70;;;;;;;7.63;59.14;93005.28;5040073;28;20025;-77
2021/12/29 05:58:59;;;;;;;25.75;12.32;;;;;;;7.78;58.62;93033.94;5040858;28;20093;-76
2021/12/29 06:01:25;;;;;;;27.15;12.05;;;;;;;7.49;59.25;93016.03;5045230;28;20047;-76
2021/12/29 06:03:50;;;;;;;23.38;12.13;;;;;;;7.58;59.28;93016.78;5043624;28;20033;-76
2021/12/29 06:06:16;;;;;;;28.52;12.38;;;;;;;7.79;58.78;93037.34;5041339;28;20128;-77
2021/12/29 06:08:41;;;;;;;21.02;10.45;;;;;;;7.62;58.33;92993.94;5037609;28;20047;-77
2021/12/29 06:11:07;;;;;;;24.55;11.55;;;;;;;7.81;58.46;93030.66;5044353;28;20498;-76
2021/12/29 06:13:32;;;;;;;22.10;10.88;;;;;;;7.55;58.48;92972.44;5046208;28;20158;-78
2021/12/29 06:15:57;;;;;;;20.00;10.95;;;;;;;7.80;58.11;93023.03;5041228;28;20065;-77
2021/12/29 06:18:23;;;;;;;21.10;11.35;;;;;;;7.77;58.22;92999.84;5048323;28;20037;-76
2021/12/29 06:20:48;;;;;;;19.35;10.50;;;;;;;7.78;58.07;93007.47;5031948;28;20025;-77
2021/12/29 06:23:14;;;;;;;26.35;12.00;;;;;;;8.02;58.01;93028.13;5038053;28;20528;-76
2021/12/29 06:25:40;;;;;;;22.70;12.30;;;;;;;8.04;58.00;93037.31;5048286;28;20037;-76
2021/12/29 06:28:06;;;;;;;18.00;10.38;;;;;;;8.06;57.67;93037.00;5043479;28;20043;-78
2021/12/29 06:30:32;;;;;;;17.08;10.48;;;;;;;8.05;57.78;93032.78;5043397;28;20784;-78
2021/12/29 06:32:58;;;;;;;18.67;10.05;;;;;;;7.99;57.49;93020.81;5046457;28;20055;-77
2021/12/29 06:35:24;;;;;;;16.00;9.10;;;;;;;7.98;57.43;93016.59;5046715;28;20493;-77
2021/12/29 06:37:50;;;;;;;17.85;10.35;;;;;;;8.13;57.19;93030.13;5034709;28;20056;-78
2021/12/29 06:40:16;;;;;;;18.02;11.35;;;;;;;7.98;57.43;93017.38;5044301;28;20045;-77
2021/12/29 06:42:42;;;;;;;18.15;11.32;;;;;;;8.15;57.36;93032.47;5031050;28;20049;-75
2021/12/29 06:45:08;;;;;;;19.88;10.90;;;;;;;8.14;57.45;93021.09;5048284;28;20387;-76
2021/12/29 06:47:33;;;;;;;29.60;14.75;;;;;;;8.32;56.58;93021.78;5047603;28;20613;-76
2021/12/29 06:49:59;;;;;;;40.92;15.20;;;;;;;8.35;56.86;93031.00;5044434;28;20060;-77
2021/12/29 06:52:25;;;;;;;22.15;13.25;;;;;;;8.34;57.17;93059.34;5021877;28;20041;-77
2021/12/29 06:54:50;;;;;;;28.52;16.35;;;;;;;8.15;57.92;93053.66;5050543;28;20032;-76
2021/12/29 06:57:15;;;;;;;29.67;14.52;;;;;;;7.98;58.11;93037.78;5045489;28;20037;-76
2021/12/29 06:59:42;;;;;;;29.85;14.00;;;;;;;7.99;58.74;93063.97;5044434;28;20056;-76
2021/12/29 07:02:10;;;;;;;29.95;14.90;;;;;;;7.91;58.68;93053.38;5032866;28;20322;-75
2021/12/29 07:04:36;;;;;;;30.42;15.77;;;;;;;7.85;59.26;93060.72;5045228;28;20036;-75
2021/12/29 07:07:01;;;;;;;31.85;16.15;;;;;;;7.60;59.44;93033.16;5046294;28;20048;-75
2021/12/29 07:09:27;;;;;;;35.42;15.65;;;;;;;7.73;59.61;93042.81;5044562;28;20459;-77
2021/12/29 07:11:52;;;;;;;37.88;18.33;;;;;;;7.97;59.65;93073.31;5044379;28;20052;-77
2021/12/29 07:14:20;;;;;;;33.38;15.52;;;;;;;7.79;59.76;93056.66;5046022;28;20029;-75
2021/12/29 07:16:47;;;;;;;30.85;15.43;;;;;;;7.83;59.87;93062.09;5045509;28;20026;-76
2021/12/29 07:19:13;;;;;;;34.65;17.17;;;;;;;7.82;59.79;93057.91;5025041;28;20043;-77
2021/12/29 07:21:38;;;;;;;33.88;15.60;;;;;;;8.15;59.19;93077.50;5046836;28;20104;-76
2021/12/29 07:24:05;;;;;;;28.58;14.63;;;;;;;8.06;58.86;93058.19;5043510;28;20060;-76
2021/12/29 07:26:30;;;;;;;31.80;14.00;;;;;;;7.99;59.15;93061.31;5052218;28;20029;-75
2021/12/29 07:28:56;;;;;;;27.58;14.25;;;;;;;8.13;59.52;93082.31;5042693;28;20492;-75
2021/12/29 07:31:22;;;;;;;33.08;16.75;;;;;;;8.11;59.60;93081.84;5045755;28;20057;-76
2021/12/29 07:33:47;;;;;;;32.17;16.80;;;;;;;7.81;60.62;93072.25;5040935;28;20124;-76
2021/12/29 07:36:13;;;;;;;29.92;15.30;;;;;;;7.90;61.09;93075.66;5044460;28;20045;-76
2021/12/29 07:38:39;;;;;;;28.67;16.15;;;;;;;7.96;60.40;93051.34;5040910;28;20428;-75
2021/12/29 07:41:05;;;;;;;34.72;17.55;;;;;;;8.23;59.71;93067.94;5044367;28;20037;-76
2021/12/29 07:43:31;;;;;;;37.33;19.38;;;;;;;8.23;60.02;93076.69;5035972;28;20037;-76
2021/12/29 07:45:56;;;;;;;36.13;20.95;;;;;;;8.21;60.19;93084.19;5043904;28;20041;-76
2021/12/29 07:48:28;;;;;;;39.83;20.13;;;;;;;8.19;60.67;93086.34;5042977;28;20068;-76
2021/12/29 07:50:53;;;;;;;35.03;18.30;;;;;;;8.20;60.76;93085.25;5047231;28;20317;-76
2021/12/29 07:53:20;;;;;;;31.77;17.65;;;;;;;8.23;60.42;93086.50;5051805;28;20013;-76
2021/12/29 07:55:45;;;;;;;25.08;15.32;;;;;;;8.19;60.66;93085.56;5049807;28;20059;-76
2021/12/29 07:58:11;;;;;;;30.42;16.92;;;;;;;8.18;60.83;93087.44;5045962;28;20049;-76
2021/12/29 08:00:36;;;;;;;29.00;15.10;;;;;;;8.03;61.61;93077.34;5045638;28;20041;-76
2021/12/29 08:03:02;;;;;;;31.55;17.35;;;;;;;7.67;63.15;93091.69;5045671;28;20513;-76
2021/12/29 08:05:27;;;;;;;34.00;19.23;;;;;;;7.66;63.92;93084.84;5039104;28;20056;-77
2021/12/29 08:07:53;;;;;;;30.65;18.40;;;;;;;7.76;63.63;93075.81;5052843;28;20059;-77
2021/12/29 08:10:18;;;;;;;34.35;17.35;;;;;;;7.71;63.82;93060.84;5045117;28;20606;-78
2021/12/29 08:12:44;;;;;;;30.02;17.60;;;;;;;7.18;65.65;93073.59;5046607;28;20045;-77
2021/12/29 08:15:11;;;;;;;30.25;18.00;;;;;;;7.44;65.30;93066.44;5037090;28;20072;-77
2021/12/29 08:17:39;;;;;;;34.67;18.85;;;;;;;7.80;64.08;93073.31;5046854;28;20024;-77
2021/12/29 08:20:05;;;;;;;37.70;17.67;;;;;;;8.04;63.15;93063.00;5038652;28;20044;-76
2021/12/29 08:22:30;;;;;;;35.60;18.23;;;;;;;8.39;61.77;93075.09;5039733;28;20485;-77
2021/12/29 08:24:56;;;;;;;52.30;21.70;;;;;;;8.13;61.50;93037.28;5034100;28;20072;-76
2021/12/29 08:27:22;;;;;;;33.97;17.75;;;;;;;8.31;61.46;93067.16;5045718;28;20041;-77
2021/12/29 08:29:47;;;;;;;32.95;17.23;;;;;;;8.26;62.06;93076.06;5045035;28;20025;-76
2021/12/29 08:32:13;;;;;;;33.90;17.42;;;;;;;8.33;61.42;93067.63;5030598;28;20624;-77
2021/12/29 08:34:38;;;;;;;38.05;18.90;;;;;;;8.49;61.35;93080.03;5043512;28;20468;-77
2021/12/29 08:37:03;;;;;;;32.08;16.73;;;;;;;7.99;62.60;93049.94;5035048;28;20091;-77
2021/12/29 08:39:29;;;;;;;34.40;17.05;;;;;;;8.11;62.08;93052.72;5037578;28;20048;-77
2021/12/29 08:41:54;;;;;;;34.10;17.25;;;;;;;7.94;62.80;93074.72;5041127;28;20035;-75
2021/12/29 08:44:20;;;;;;;34.25;17.70;;;;;;;7.91;63.81;93075.34;5043748;28;20039;-74
2021/12/29 08:46:47;;;;;;;32.40;16.55;;;;;;;7.63;64.87;93069.56;5038822;28;20060;-77
2021/12/29 08:49:12;;;;;;;33.97;18.13;;;;;;;7.35;66.32;93068.31;5041593;28;20059;-78
2021/12/29 08:51:38;;;;;;;36.83;19.65;;;;;;;7.45;66.46;93059.28;5041689;28;20112;-77
2021/12/29 08:54:04;;;;;;;52.72;25.30;;;;;;;7.38;67.25;93088.09;5039757;28;20033;-77
2021/12/29 08:56:30;;;;;;;60.05;26.27;;;;;;;7.02;69.40;93078.53;5040797;28;20071;-77
2021/12/29 08:58:56;;;;;;;52.90;24.92;;;;;;;7.66;67.18;93073.47;5038510;28;20133;-77
2021/12/29 09:01:23;;;;;;;55.47;25.98;;;;;;;7.90;65.62;93057.91;5031660;28;20041;-77
2021/12/29 09:03:48;;;;;;;47.25;24.17;;;;;;;7.95;64.91;93049.00;5041563;28;20045;-78
2021/12/29 09:06:15;;;;;;;41.42;21.67;;;;;;;7.56;65.15;93011.06;5038097;28;20326;-76
2021/12/29 09:08:40;;;;;;;39.42;20.20;;;;;;;7.89;64.67;93037.03;5037406;28;20134;-76
2021/12/29 09:11:06;;;;;;;46.00;21.55;;;;;;;8.20;63.55;93053.47;5025934;28;20057;-76
2021/12/29 09:13:31;;;;;;;38.85;18.00;;;;;;;8.31;63.21;93046.75;5040443;28;20074;-77
2021/12/29 09:15:57;;;;;;;30.63;16.75;;;;;;;8.50;62.64;93044.50;5028790;28;20045;-76
2021/12/29 09:18:24;;;;;;;31.45;16.83;;;;;;;8.63;61.81;93041.94;5049222;28;20040;-77
2021/12/29 09:20:52;;;;;;;31.08;17.20;;;;;;;8.54;62.07;93042.75;5044410;28;20144;-77
2021/12/29 09:23:18;;;;;;;39.90;20.38;;;;;;;8.22;63.83;93038.03;5025053;28;20055;-77
2021/12/29 09:25:45;;;;;;;40.05;19.77;;;;;;;8.25;63.75;93032.13;5048018;28;20599;-77
2021/12/29 09:28:13;;;;;;;39.53;21.67;;;;;;;8.23;63.68;93017.63;5043693;28;20053;-77
2021/12/29 09:30:42;;;;;;;40.30;22.58;;;;;;;7.85;66.20;93034.25;5037682;28;20393;-77
2021/12/29 09:33:07;;;;;;;54.33;27.35;;;;;;;7.20;68.13;93008.72;5054298;28;20032;-76
2021/12/29 09:35:33;;;;;;;52.75;24.90;;;;;;;6.98;70.23;93014.16;5054955;28;20073;-78
2021/12/29 09:38:00;;;;;;;40.42;21.90;;;;;;;6.84;71.77;93022.22;5050983;28;20105;-78
2021/12/29 09:40:25;;;;;;;39.47;21.50;;;;;;;6.51;72.43;92997.25;5037714;28;20053;-76
2021/12/29 09:42:53;;;;;;;42.58;22.17;;;;;;;6.69;72.57;93025.31;5053395;28;20036;-76
2021/12/29 09:45:20;;;;;;;43.17;21.08;;;;;;;6.57;73.41;93017.19;5050920;28;20048;-77
2021/12/29 09:47:46;;;;;;;45.42;23.88;;;;;;;7.18;71.90;93010.13;5057360;28;20865;-77
2021/12/29 09:50:14;;;;;;;45.85;24.80;;;;;;;7.28;71.20;93001.91;5054868;28;20060;-75
2021/12/29 09:52:40;;;;;;;41.95;21.42;;;;;;;7.64;70.12;93022.72;5054759;28;20021;-78
2021/12/29 09:55:09;;;;;;;40.90;20.50;;;;;;;7.82;69.71;93012.91;5051721;28;20044;-77
2021/12/29 09:57:37;;;;;;;38.22;19.98;;;;;;;7.53;70.76;92995.78;5053213;28;20631;-76
2021/12/29 10:00:09;;;;;;;30.73;15.98;;;;;;;7.10;72.42;93019.59;5053203;28;20036;-77
2021/12/29 10:02:35;;;;;;;35.20;15.40;;;;;;;6.79;74.12;93006.53;5055641;28;20031;-77
2021/12/29 10:05:02;;;;;;;43.80;18.55;;;;;;;6.57;74.72;92977.53;5043661;28;20037;-77
2021/12/29 10:07:27;;;;;;;35.28;17.30;;;;;;;6.51;74.57;92970.84;5056406;28;20049;-78
2021/12/29 10:09:53;;;;;;;41.35;18.83;;;;;;;6.71;75.05;92996.69;5058704;28;20156;-77
2021/12/29 10:12:21;;;;;;;45.97;22.02;;;;;;;6.86;74.52;92988.31;5041319;28;20040;-76
2021/12/29 10:14:53;;;;;;;34.38;18.58;;;;;;;7.06;74.29;92994.09;5054361;28;20028;-76
2021/12/29 10:17:19;;;;;;;37.83;19.13;;;;;;;6.96;74.21;92975.88;5058582;28;20105;-77
2021/12/29 10:19:45;;;;;;;45.33;21.88;;;;;;;7.60;72.51;92993.44;5054295;28;20108;-77
2021/12/29 10:22:21;;;;;;;35.85;18.88;;;;;;;7.82;71.11;92949.38;5047722;28;20178;-77
2021/12/29 10:24:48;;;;;;;41.50;18.73;;;;;;;8.19;69.87;92983.06;5048858;28;20052;-75
2021/12/29 10:27:19;;;;;;;39.95;20.33;;;;;;;8.29;68.93;92984.56;5052124;28;20037;-75
2021/12/29 10:29:45;;;;;;;39.47;20.50;;;;;;;8.05;68.93;92975.31;5049241;28;20013;-76
2021/12/29 10:32:11;;;;;;;43.67;19.40;;;;;;;8.39;67.97;92979.69;5052215;28;20120;-75
2021/12/29 10:34:36;;;;;;;44.83;19.33;;;;;;;8.25;67.91;92935.97;5018412;28;20047;-76
2021/12/29 10:37:06;;;;;;;44.35;20.98;;;;;;;8.72;66.86;92979.84;5030423;28;20048;-76
2021/12/29 10:39:47;;;;;;;40.22;20.10;;;;;;;8.80;65.29;92946.44;5034561;28;20562;-75
2021/12/29 10:42:13;;;;;;;40.72;20.52;;;;;;;8.55;66.30;92972.78;5041300;28;20068;-76
2021/12/29 10:44:43;;;;;;;46.60;20.60;;;;;;;8.81;65.92;92977.13;5042117;28;20721;-76
2021/12/29 10:47:24;;;;;;;43.55;19.42;;;;;;;8.98;64.82;92958.47;5043829;28;20029;-78
2021/12/29 10:49:53;;;;;;;34.85;18.58;;;;;;;9.13;64.44;92960.56;5038682;28;20528;-77
2021/12/29 10:52:40;;;;;;;38.97;19.73;;;;;;;9.31;62.94;92964.63;5049878;28;20056;-78
2021/12/29 10:55:15;;;;;;;39.17;20.70;;;;;;;9.16;63.29;92954.59;5055384;28;20136;-77
2021/12/29 10:57:41;;;;;;;36.30;19.23;;;;;;;9.33;62.89;92951.81;5035330;28;20064;-77
2021/12/29 11:00:15;;;;;;;39.92;21.13;;;;;;;9.15;62.77;92937.13;5054477;28;20067;-77
2021/12/29 11:02:42;;;;;;;44.30;21.02;;;;;;;9.26;62.81;92964.03;5056641;28;21193;-77
2021/12/29 11:05:10;;;;;;;42.20;22.40;;;;;;;9.25;62.96;92955.31;5054704;28;20793;-77
2021/12/29 11:07:37;;;;;;;41.97;20.65;;;;;;;9.12;63.34;92942.31;5042639;28;20061;-78
2021/12/29 11:10:09;;;;;;;48.03;20.83;;;;;;;9.11;63.59;92954.00;5050973;28;20053;-79
2021/12/29 11:12:50;;;;;;;45.65;22.25;;;;;;;9.26;63.47;92956.09;5055303;28;20159;-77
2021/12/29 11:15:25;;;;;;;41.30;21.00;;;;;;;9.24;62.92;92934.44;5055270;28;20045;-76
2021/12/29 11:17:51;;;;;;;;;;;;;;;9.45;62.74;92951.06;5038925;28;20058;-77
2021/12/29 11:20:19;;;;;;;42.78;22.38;;;;;;;9.36;62.68;92943.19;5033368;28;20438;-76
2021/12/29 11:22:44;;;;;;;42.05;21.23;;;;;;;9.52;62.27;92938.06;5039288;28;20348;-76
2021/12/29 11:25:10;;;;;;;47.80;22.63;;;;;;;9.62;61.96;92934.22;5037061;28;20138;-77
2021/12/29 11:27:37;;;;;;;47.58;23.50;;;;;;;9.29;62.77;92920.97;5037236;28;20036;-77
2021/12/29 11:30:10;;;;;;;47.15;23.70;;;;;;;9.47;62.82;92935.63;5043052;28;20057;-77
2021/12/29 11:32:39;;;;;;;49.97;22.73;;;;;;;9.40;62.58;92917.56;5051588;28;20022;-77
2021/12/29 11:35:23;;;;;;;52.22;24.55;;;;;;;9.25;62.97;92928.78;5046382;28;20069;-77
2021/12/29 11:37:53;;;;;;;47.72;25.55;;;;;;;9.06;64.16;92922.34;5043016;28;20040;-77